sensor_id;sensor_type;location;lat;lon;timestamp;pressure;altitude;pressure_sealevel;temperature;humidity
61488;BME280;47351;53.326;-6.298;2022-12-29T00:01:27;98435.52;;;5.97;92.62
61488;BME280;47351;53.326;-6.298;2022-12-29T00:04:15;98435.19;;;5.97;92.71
61488;BME280;47351;53.326;-6.298;2022-12-29T00:07:04;98436.66;;;5.97;92.75
61488;BME280;47351;53.326;-6.298;2022-12-29T00:09:53;98441.15;;;5.96;92.75
61488;BME280;47351;53.326;-6.298;2022-12-29T00:12:41;98449.50;;;5.95;92.81
61488;BME280;47351;53.326;-6.298;2022-12-29T00:15:48;98461.59;;;5.93;92.97
61488;BME280;47351;53.326;-6.298;2022-12-29T00:18:37;98467.52;;;5.92;93.02
61488;BME280;47351;53.326;-6.298;2022-12-29T00:21:25;98479.91;;;5.92;93.33
61488;BME280;47351;53.326;-6.298;2022-12-29T00:24:33;98487.77;;;5.93;93.39
61488;BME280;47351;53.326;-6.298;2022-12-29T00:27:39;98491.60;;;5.93;93.36
61488;BME280;47351;53.326;-6.298;2022-12-29T00:30:54;98497.95;;;5.94;93.58
61488;BME280;47351;53.326;-6.298;2022-12-29T00:34:07;98502.81;;;5.93;93.55
61488;BME280;47351;53.326;-6.298;2022-12-29T00:37:13;98510.62;;;5.91;93.61
61488;BME280;47351;53.326;-6.298;2022-12-29T00:40:02;98511.56;;;5.91;93.65
61488;BME280;47351;53.326;-6.298;2022-12-29T00:43:08;98514.05;;;5.91;93.61
61488;BME280;47351;53.326;-6.298;2022-12-29T00:46:15;98518.80;;;5.91;93.78
61488;BME280;47351;53.326;-6.298;2022-12-29T00:49:08;98519.61;;;5.90;93.80
61488;BME280;47351;53.326;-6.298;2022-12-29T00:52:15;98518.97;;;5.89;93.65
61488;BME280;47351;53.326;-6.298;2022-12-29T00:55:06;98524.30;;;5.88;93.56
61488;BME280;47351;53.326;-6.298;2022-12-29T00:57:55;98525.70;;;5.88;93.52
61488;BME280;47351;53.326;-6.298;2022-12-29T01:00:43;98527.85;;;5.88;93.47
61488;BME280;47351;53.326;-6.298;2022-12-29T01:03:33;98526.88;;;5.88;93.43
61488;BME280;47351;53.326;-6.298;2022-12-29T01:06:22;98528.16;;;5.89;93.36
61488;BME280;47351;53.326;-6.298;2022-12-29T01:09:11;98531.35;;;5.89;93.23
61488;BME280;47351;53.326;-6.298;2022-12-29T01:12:18;98538.23;;;5.88;93.19
61488;BME280;47351;53.326;-6.298;2022-12-29T01:15:29;98542.23;;;5.88;93.07
61488;BME280;47351;53.326;-6.298;2022-12-29T01:18:18;98541.93;;;5.87;92.96
61488;BME280;47351;53.326;-6.298;2022-12-29T01:21:06;98545.63;;;5.87;92.92
61488;BME280;47351;53.326;-6.298;2022-12-29T01:23:55;98547.21;;;5.87;92.85
61488;BME280;47351;53.326;-6.298;2022-12-29T01:26:43;98550.98;;;5.85;92.76
61488;BME280;47351;53.326;-6.298;2022-12-29T01:29:32;98553.12;;;5.84;92.76
61488;BME280;47351;53.326;-6.298;2022-12-29T01:32:20;98548.34;;;5.82;92.64
61488;BME280;47351;53.326;-6.298;2022-12-29T01:35:09;98546.35;;;5.81;92.66
61488;BME280;47351;53.326;-6.298;2022-12-29T01:37:58;98547.86;;;5.80;92.68
61488;BME280;47351;53.326;-6.298;2022-12-29T01:40:47;98548.55;;;5.79;92.61
61488;BME280;47351;53.326;-6.298;2022-12-29T01:43:40;98551.98;;;5.77;92.67
61488;BME280;47351;53.326;-6.298;2022-12-29T01:46:29;98557.48;;;5.75;92.71
61488;BME280;47351;53.326;-6.298;2022-12-29T01:49:19;98559.08;;;5.75;92.71
61488;BME280;47351;53.326;-6.298;2022-12-29T01:52:10;98567.52;;;5.75;92.66
61488;BME280;47351;53.326;-6.298;2022-12-29T01:54:59;98568.23;;;5.75;92.62
61488;BME280;47351;53.326;-6.298;2022-12-29T01:57:50;98565.27;;;5.75;92.58
61488;BME280;47351;53.326;-6.298;2022-12-29T02:00:41;98571.44;;;5.74;92.52
61488;BME280;47351;53.326;-6.298;2022-12-29T02:03:29;98579.48;;;5.72;92.51
61488;BME280;47351;53.326;-6.298;2022-12-29T02:06:21;98586.63;;;5.71;92.47
61488;BME280;47351;53.326;-6.298;2022-12-29T02:09:09;98599.63;;;5.72;92.46
61488;BME280;47351;53.326;-6.298;2022-12-29T02:11:58;98606.04;;;5.73;92.45
61488;BME280;47351;53.326;-6.298;2022-12-29T02:14:47;98597.05;;;5.74;92.37
61488;BME280;47351;53.326;-6.298;2022-12-29T02:17:44;98601.71;;;5.75;92.27
61488;BME280;47351;53.326;-6.298;2022-12-29T02:20:45;98602.21;;;5.75;92.27
61488;BME280;47351;53.326;-6.298;2022-12-29T02:26:47;98604.65;;;5.74;92.22
61488;BME280;47351;53.326;-6.298;2022-12-29T02:29:42;98605.64;;;5.75;92.23
61488;BME280;47351;53.326;-6.298;2022-12-29T02:32:40;98604.99;;;5.76;92.10
61488;BME280;47351;53.326;-6.298;2022-12-29T02:35:32;98615.31;;;5.77;92.01
61488;BME280;47351;53.326;-6.298;2022-12-29T02:38:27;98617.17;;;5.79;91.85
61488;BME280;47351;53.326;-6.298;2022-12-29T02:41:21;98614.60;;;5.80;91.60
61488;BME280;47351;53.326;-6.298;2022-12-29T02:44:12;98627.42;;;5.79;91.41
61488;BME280;47351;53.326;-6.298;2022-12-29T02:47:04;98618.86;;;5.80;91.25
61488;BME280;47351;53.326;-6.298;2022-12-29T02:49:59;98627.49;;;5.80;91.19
61488;BME280;47351;53.326;-6.298;2022-12-29T02:52:50;98635.23;;;5.81;91.13
61488;BME280;47351;53.326;-6.298;2022-12-29T02:55:48;98642.15;;;5.82;91.03
61488;BME280;47351;53.326;-6.298;2022-12-29T02:58:36;98647.52;;;5.83;91.02
61488;BME280;47351;53.326;-6.298;2022-12-29T03:01:29;98651.98;;;5.85;90.95
61488;BME280;47351;53.326;-6.298;2022-12-29T03:04:23;98652.13;;;5.85;90.82
61488;BME280;47351;53.326;-6.298;2022-12-29T03:07:18;98653.63;;;5.84;90.64
61488;BME280;47351;53.326;-6.298;2022-12-29T03:10:15;98655.42;;;5.84;90.38
61488;BME280;47351;53.326;-6.298;2022-12-29T03:13:09;98662.09;;;5.84;90.15
61488;BME280;47351;53.326;-6.298;2022-12-29T03:16:20;98668.23;;;5.85;89.88
61488;BME280;47351;53.326;-6.298;2022-12-29T03:19:12;98668.01;;;5.87;89.69
61488;BME280;47351;53.326;-6.298;2022-12-29T03:22:04;98670.27;;;5.87;89.55
61488;BME280;47351;53.326;-6.298;2022-12-29T03:25:20;98689.56;;;5.88;89.57
61488;BME280;47351;53.326;-6.298;2022-12-29T03:28:09;98685.08;;;5.91;89.46
61488;BME280;47351;53.326;-6.298;2022-12-29T03:31:03;98691.57;;;5.91;89.43
61488;BME280;47351;53.326;-6.298;2022-12-29T03:33:53;98699.95;;;5.91;89.35
61488;BME280;47351;53.326;-6.298;2022-12-29T03:36:44;98709.15;;;5.89;89.27
61488;BME280;47351;53.326;-6.298;2022-12-29T03:39:35;98719.09;;;5.87;89.28
61488;BME280;47351;53.326;-6.298;2022-12-29T03:42:25;98730.65;;;5.85;89.44
61488;BME280;47351;53.326;-6.298;2022-12-29T03:45:14;98741.62;;;5.84;89.58
61488;BME280;47351;53.326;-6.298;2022-12-29T03:48:03;98752.90;;;5.83;89.74
61488;BME280;47351;53.326;-6.298;2022-12-29T03:50:52;98752.81;;;5.82;89.86
61488;BME280;47351;53.326;-6.298;2022-12-29T03:53:41;98750.59;;;5.81;89.92
61488;BME280;47351;53.326;-6.298;2022-12-29T03:56:30;98760.07;;;5.79;90.18
61488;BME280;47351;53.326;-6.298;2022-12-29T03:59:19;98761.61;;;5.78;90.32
61488;BME280;47351;53.326;-6.298;2022-12-29T04:02:07;98770.23;;;5.76;90.50
61488;BME280;47351;53.326;-6.298;2022-12-29T04:04:56;98775.58;;;5.76;90.62
61488;BME280;47351;53.326;-6.298;2022-12-29T04:07:45;98780.76;;;5.76;90.76
61488;BME280;47351;53.326;-6.298;2022-12-29T04:10:34;98795.33;;;5.77;90.75
61488;BME280;47351;53.326;-6.298;2022-12-29T04:13:25;98797.85;;;5.76;90.64
61488;BME280;47351;53.326;-6.298;2022-12-29T04:16:14;98802.27;;;5.77;90.59
61488;BME280;47351;53.326;-6.298;2022-12-29T04:19:03;98800.18;;;5.76;90.53
61488;BME280;47351;53.326;-6.298;2022-12-29T04:21:53;98804.86;;;5.76;90.38
61488;BME280;47351;53.326;-6.298;2022-12-29T04:24:42;98806.17;;;5.76;90.13
61488;BME280;47351;53.326;-6.298;2022-12-29T04:27:32;98813.89;;;5.77;89.98
61488;BME280;47351;53.326;-6.298;2022-12-29T04:30:44;98819.82;;;5.78;89.87
61488;BME280;47351;53.326;-6.298;2022-12-29T04:33:38;98829.51;;;5.78;89.80
61488;BME280;47351;53.326;-6.298;2022-12-29T04:36:27;98828.14;;;5.79;89.59
61488;BME280;47351;53.326;-6.298;2022-12-29T04:39:18;98835.57;;;5.79;89.41
61488;BME280;47351;53.326;-6.298;2022-12-29T04:42:06;98845.97;;;5.78;89.30
61488;BME280;47351;53.326;-6.298;2022-12-29T04:44:55;98837.05;;;5.77;89.23
61488;BME280;47351;53.326;-6.298;2022-12-29T04:47:57;98843.83;;;5.77;89.20
61488;BME280;47351;53.326;-6.298;2022-12-29T04:51:04;98843.33;;;5.77;88.94
61488;BME280;47351;53.326;-6.298;2022-12-29T04:53:58;98854.78;;;5.77;88.82
61488;BME280;47351;53.326;-6.298;2022-12-29T04:56:52;98852.66;;;5.77;88.55
61488;BME280;47351;53.326;-6.298;2022-12-29T04:59:41;98862.67;;;5.78;88.33
61488;BME280;47351;53.326;-6.298;2022-12-29T05:02:29;98862.88;;;5.78;88.08
61488;BME280;47351;53.326;-6.298;2022-12-29T05:05:19;98858.86;;;5.77;87.94
61488;BME280;47351;53.326;-6.298;2022-12-29T05:08:10;98863.98;;;5.77;87.65
61488;BME280;47351;53.326;-6.298;2022-12-29T05:10:59;98877.98;;;5.77;87.14
61488;BME280;47351;53.326;-6.298;2022-12-29T05:13:48;98870.30;;;5.79;86.86
61488;BME280;47351;53.326;-6.298;2022-12-29T05:16:38;98875.20;;;5.80;86.72
61488;BME280;47351;53.326;-6.298;2022-12-29T05:19:26;98878.44;;;5.78;86.49
61488;BME280;47351;53.326;-6.298;2022-12-29T05:22:15;98879.86;;;5.76;85.99
61488;BME280;47351;53.326;-6.298;2022-12-29T05:25:06;98873.11;;;5.73;85.78
61488;BME280;47351;53.326;-6.298;2022-12-29T05:28:06;98876.67;;;5.68;85.77
61488;BME280;47351;53.326;-6.298;2022-12-29T05:31:05;98879.83;;;5.63;85.63
61488;BME280;47351;53.326;-6.298;2022-12-29T05:33:55;98878.15;;;5.57;85.66
61488;BME280;47351;53.326;-6.298;2022-12-29T05:36:43;98877.44;;;5.52;85.64
61488;BME280;47351;53.326;-6.298;2022-12-29T05:39:32;98880.70;;;5.46;85.48
61488;BME280;47351;53.326;-6.298;2022-12-29T05:42:23;98884.33;;;5.43;85.37
61488;BME280;47351;53.326;-6.298;2022-12-29T05:45:18;98884.66;;;5.40;85.20
61488;BME280;47351;53.326;-6.298;2022-12-29T05:48:27;98893.89;;;5.38;84.57
61488;BME280;47351;53.326;-6.298;2022-12-29T05:51:45;98901.36;;;5.37;83.99
61488;BME280;47351;53.326;-6.298;2022-12-29T05:54:34;98901.58;;;5.40;84.04
61488;BME280;47351;53.326;-6.298;2022-12-29T05:57:24;98895.96;;;5.41;84.63
61488;BME280;47351;53.326;-6.298;2022-12-29T06:00:23;98896.58;;;5.39;85.01
61488;BME280;47351;53.326;-6.298;2022-12-29T06:03:13;98902.06;;;5.36;85.03
61488;BME280;47351;53.326;-6.298;2022-12-29T06:06:02;98892.54;;;5.34;85.01
61488;BME280;47351;53.326;-6.298;2022-12-29T06:08:51;98900.10;;;5.32;85.01
61488;BME280;47351;53.326;-6.298;2022-12-29T06:11:40;98908.36;;;5.31;85.08
61488;BME280;47351;53.326;-6.298;2022-12-29T06:14:29;98907.66;;;5.31;85.07
61488;BME280;47351;53.326;-6.298;2022-12-29T06:17:19;98910.68;;;5.31;84.99
61488;BME280;47351;53.326;-6.298;2022-12-29T06:20:10;98908.66;;;5.32;84.64
61488;BME280;47351;53.326;-6.298;2022-12-29T06:22:58;98909.63;;;5.33;84.32
61488;BME280;47351;53.326;-6.298;2022-12-29T06:25:47;98908.55;;;5.34;83.99
61488;BME280;47351;53.326;-6.298;2022-12-29T06:28:36;98913.00;;;5.34;83.87
61488;BME280;47351;53.326;-6.298;2022-12-29T06:31:25;98910.48;;;5.33;83.75
61488;BME280;47351;53.326;-6.298;2022-12-29T06:34:13;98911.08;;;5.32;83.84
61488;BME280;47351;53.326;-6.298;2022-12-29T06:37:02;98914.80;;;5.31;84.13
61488;BME280;47351;53.326;-6.298;2022-12-29T06:39:51;98911.55;;;5.28;84.23
61488;BME280;47351;53.326;-6.298;2022-12-29T06:42:41;98918.23;;;5.27;84.31
61488;BME280;47351;53.326;-6.298;2022-12-29T06:45:46;98926.64;;;5.26;84.25
61488;BME280;47351;53.326;-6.298;2022-12-29T06:48:35;98919.65;;;5.27;84.17
61488;BME280;47351;53.326;-6.298;2022-12-29T06:51:23;98919.61;;;5.27;84.13
61488;BME280;47351;53.326;-6.298;2022-12-29T06:54:12;98918.65;;;5.28;84.06
61488;BME280;47351;53.326;-6.298;2022-12-29T06:57:01;98931.52;;;5.28;83.93
61488;BME280;47351;53.326;-6.298;2022-12-29T06:59:49;98943.14;;;5.27;83.86
61488;BME280;47351;53.326;-6.298;2022-12-29T07:02:38;98944.09;;;5.27;83.65
61488;BME280;47351;53.326;-6.298;2022-12-29T07:05:27;98947.80;;;5.27;83.58
61488;BME280;47351;53.326;-6.298;2022-12-29T07:08:15;98952.64;;;5.28;83.31
61488;BME280;47351;53.326;-6.298;2022-12-29T07:11:04;98955.34;;;5.27;83.09
61488;BME280;47351;53.326;-6.298;2022-12-29T07:13:53;98954.44;;;5.27;82.69
61488;BME280;47351;53.326;-6.298;2022-12-29T07:16:41;98962.43;;;5.27;82.80
61488;BME280;47351;53.326;-6.298;2022-12-29T07:19:30;98958.52;;;5.24;82.96
61488;BME280;47351;53.326;-6.298;2022-12-29T07:22:18;98959.19;;;5.21;82.99
61488;BME280;47351;53.326;-6.298;2022-12-29T07:25:08;98964.27;;;5.19;82.87
61488;BME280;47351;53.326;-6.298;2022-12-29T07:27:56;98963.89;;;5.17;82.88
61488;BME280;47351;53.326;-6.298;2022-12-29T07:30:46;98968.72;;;5.17;82.92
61488;BME280;47351;53.326;-6.298;2022-12-29T07:33:35;98971.98;;;5.16;83.11
61488;BME280;47351;53.326;-6.298;2022-12-29T07:36:24;98970.13;;;5.15;83.40
61488;BME280;47351;53.326;-6.298;2022-12-29T07:39:21;98970.45;;;5.12;83.76
61488;BME280;47351;53.326;-6.298;2022-12-29T07:42:09;98969.80;;;5.08;84.09
61488;BME280;47351;53.326;-6.298;2022-12-29T07:45:03;98967.70;;;5.04;84.08
61488;BME280;47351;53.326;-6.298;2022-12-29T07:47:55;98974.68;;;5.04;83.89
61488;BME280;47351;53.326;-6.298;2022-12-29T07:50:44;98982.89;;;5.06;83.97
61488;BME280;47351;53.326;-6.298;2022-12-29T07:53:32;98982.79;;;5.09;83.96
61488;BME280;47351;53.326;-6.298;2022-12-29T07:56:21;98977.39;;;5.11;83.92
61488;BME280;47351;53.326;-6.298;2022-12-29T07:59:10;98978.75;;;5.14;83.83
61488;BME280;47351;53.326;-6.298;2022-12-29T08:01:59;98980.05;;;5.15;83.79
61488;BME280;47351;53.326;-6.298;2022-12-29T08:04:48;98987.81;;;5.15;83.45
61488;BME280;47351;53.326;-6.298;2022-12-29T08:07:36;98985.83;;;5.17;83.11
61488;BME280;47351;53.326;-6.298;2022-12-29T08:10:25;98985.83;;;5.17;82.98
61488;BME280;47351;53.326;-6.298;2022-12-29T08:13:13;98984.68;;;5.16;82.82
61488;BME280;47351;53.326;-6.298;2022-12-29T08:16:02;98989.75;;;5.14;82.90
61488;BME280;47351;53.326;-6.298;2022-12-29T08:18:51;99010.19;;;5.10;82.84
61488;BME280;47351;53.326;-6.298;2022-12-29T08:21:39;99014.95;;;5.09;82.92
61488;BME280;47351;53.326;-6.298;2022-12-29T08:24:27;99006.83;;;5.09;83.01
61488;BME280;47351;53.326;-6.298;2022-12-29T08:27:16;99017.88;;;5.08;82.87
61488;BME280;47351;53.326;-6.298;2022-12-29T08:30:09;99021.99;;;5.08;82.82
61488;BME280;47351;53.326;-6.298;2022-12-29T08:32:58;99022.81;;;5.08;82.60
61488;BME280;47351;53.326;-6.298;2022-12-29T08:35:46;99003.20;;;5.09;82.59
61488;BME280;47351;53.326;-6.298;2022-12-29T08:38:34;99006.83;;;5.09;82.56
61488;BME280;47351;53.326;-6.298;2022-12-29T08:41:23;99026.06;;;5.08;82.53
61488;BME280;47351;53.326;-6.298;2022-12-29T08:44:11;99019.29;;;5.06;82.63
61488;BME280;47351;53.326;-6.298;2022-12-29T08:47:00;99019.36;;;5.06;82.72
61488;BME280;47351;53.326;-6.298;2022-12-29T08:49:48;99019.90;;;5.04;82.79
61488;BME280;47351;53.326;-6.298;2022-12-29T08:52:37;99024.89;;;5.04;82.76
61488;BME280;47351;53.326;-6.298;2022-12-29T08:55:25;99024.53;;;5.02;82.56
61488;BME280;47351;53.326;-6.298;2022-12-29T08:58:14;99029.17;;;5.02;82.46
61488;BME280;47351;53.326;-6.298;2022-12-29T09:01:05;99036.95;;;5.00;82.53
61488;BME280;47351;53.326;-6.298;2022-12-29T09:03:53;99039.71;;;4.99;82.50
61488;BME280;47351;53.326;-6.298;2022-12-29T09:07:01;99050.64;;;4.98;82.55
61488;BME280;47351;53.326;-6.298;2022-12-29T09:09:50;99048.95;;;4.97;82.62
61488;BME280;47351;53.326;-6.298;2022-12-29T09:12:38;99058.27;;;4.96;82.62
61488;BME280;47351;53.326;-6.298;2022-12-29T09:15:27;99067.11;;;4.94;82.81
61488;BME280;47351;53.326;-6.298;2022-12-29T09:18:15;99069.87;;;4.95;83.04
61488;BME280;47351;53.326;-6.298;2022-12-29T09:21:09;99090.69;;;4.96;83.16
61488;BME280;47351;53.326;-6.298;2022-12-29T09:23:58;99109.62;;;4.95;83.24
61488;BME280;47351;53.326;-6.298;2022-12-29T09:26:46;99111.80;;;4.96;83.24
61488;BME280;47351;53.326;-6.298;2022-12-29T09:29:35;99112.70;;;4.96;83.36
61488;BME280;47351;53.326;-6.298;2022-12-29T09:32:23;99113.85;;;4.97;83.27
61488;BME280;47351;53.326;-6.298;2022-12-29T09:35:17;99123.64;;;4.98;83.15
61488;BME280;47351;53.326;-6.298;2022-12-29T09:38:05;99125.23;;;5.00;83.08
61488;BME280;47351;53.326;-6.298;2022-12-29T09:40:54;99127.93;;;5.01;83.07
61488;BME280;47351;53.326;-6.298;2022-12-29T09:43:53;99124.38;;;5.03;83.01
61488;BME280;47351;53.326;-6.298;2022-12-29T09:46:44;99125.38;;;5.03;82.95
61488;BME280;47351;53.326;-6.298;2022-12-29T09:49:36;99117.14;;;5.04;82.98
61488;BME280;47351;53.326;-6.298;2022-12-29T09:52:30;99124.86;;;5.05;83.03
61488;BME280;47351;53.326;-6.298;2022-12-29T09:55:20;99127.61;;;5.07;83.01
61488;BME280;47351;53.326;-6.298;2022-12-29T09:58:10;99120.89;;;5.09;82.88
61488;BME280;47351;53.326;-6.298;2022-12-29T10:01:01;99136.53;;;5.12;82.67
61488;BME280;47351;53.326;-6.298;2022-12-29T10:03:50;99145.45;;;5.18;82.51
61488;BME280;47351;53.326;-6.298;2022-12-29T10:06:42;99163.58;;;5.29;82.30
61488;BME280;47351;53.326;-6.298;2022-12-29T10:09:53;99166.92;;;5.56;82.16
61488;BME280;47351;53.326;-6.298;2022-12-29T10:12:49;99160.70;;;5.63;82.08
61488;BME280;47351;53.326;-6.298;2022-12-29T10:15:43;99167.26;;;5.61;82.00
61488;BME280;47351;53.326;-6.298;2022-12-29T10:18:47;99167.48;;;5.60;81.99
61488;BME280;47351;53.326;-6.298;2022-12-29T10:21:43;99172.94;;;5.64;82.08
61488;BME280;47351;53.326;-6.298;2022-12-29T10:24:37;99181.55;;;5.77;81.81
61488;BME280;47351;53.326;-6.298;2022-12-29T10:27:26;99186.79;;;5.95;81.62
61488;BME280;47351;53.326;-6.298;2022-12-29T10:30:15;99171.02;;;6.01;81.82
61488;BME280;47351;53.326;-6.298;2022-12-29T10:33:04;99193.07;;;6.00;82.39
61488;BME280;47351;53.326;-6.298;2022-12-29T10:35:54;99197.22;;;6.13;82.54
61488;BME280;47351;53.326;-6.298;2022-12-29T10:38:44;99186.02;;;6.33;82.12
61488;BME280;47351;53.326;-6.298;2022-12-29T10:41:36;99198.84;;;6.37;81.35
61488;BME280;47351;53.326;-6.298;2022-12-29T10:44:27;99210.10;;;6.25;81.44
61488;BME280;47351;53.326;-6.298;2022-12-29T10:47:18;99225.13;;;6.11;81.63
61488;BME280;47351;53.326;-6.298;2022-12-29T10:50:11;99229.88;;;6.04;81.89
61488;BME280;47351;53.326;-6.298;2022-12-29T10:53:00;99236.35;;;5.96;82.31
61488;BME280;47351;53.326;-6.298;2022-12-29T10:55:50;99242.52;;;5.85;82.89
61488;BME280;47351;53.326;-6.298;2022-12-29T10:58:38;99249.45;;;5.76;83.24
61488;BME280;47351;53.326;-6.298;2022-12-29T11:01:32;99258.65;;;5.73;83.54
61488;BME280;47351;53.326;-6.298;2022-12-29T11:04:30;99270.05;;;5.68;84.11
61488;BME280;47351;53.326;-6.298;2022-12-29T11:07:22;99262.13;;;5.69;84.39
61488;BME280;47351;53.326;-6.298;2022-12-29T11:10:19;99255.26;;;5.70;84.45
61488;BME280;47351;53.326;-6.298;2022-12-29T11:13:11;99253.39;;;5.65;84.65
61488;BME280;47351;53.326;-6.298;2022-12-29T11:16:00;99254.52;;;5.69;84.72
61488;BME280;47351;53.326;-6.298;2022-12-29T11:18:50;99254.11;;;5.90;84.47
61488;BME280;47351;53.326;-6.298;2022-12-29T11:21:39;99263.61;;;6.07;84.04
61488;BME280;47351;53.326;-6.298;2022-12-29T11:24:29;99261.55;;;6.13;83.79
61488;BME280;47351;53.326;-6.298;2022-12-29T11:27:18;99264.42;;;5.97;83.90
61488;BME280;47351;53.326;-6.298;2022-12-29T11:30:11;99261.64;;;5.80;84.14
61488;BME280;47351;53.326;-6.298;2022-12-29T11:33:09;99274.86;;;5.64;84.61
61488;BME280;47351;53.326;-6.298;2022-12-29T11:35:58;99283.67;;;5.52;84.95
61488;BME280;47351;53.326;-6.298;2022-12-29T11:38:50;99283.73;;;5.43;85.20
61488;BME280;47351;53.326;-6.298;2022-12-29T11:41:39;99285.45;;;5.37;85.46
61488;BME280;47351;53.326;-6.298;2022-12-29T11:44:27;99289.34;;;5.32;85.56
61488;BME280;47351;53.326;-6.298;2022-12-29T11:47:23;99301.09;;;5.28;85.63
61488;BME280;47351;53.326;-6.298;2022-12-29T11:50:16;99305.20;;;5.24;85.58
61488;BME280;47351;53.326;-6.298;2022-12-29T11:53:07;99309.73;;;5.22;85.71
61488;BME280;47351;53.326;-6.298;2022-12-29T11:56:02;99302.73;;;5.22;85.74
61488;BME280;47351;53.326;-6.298;2022-12-29T11:58:52;99306.89;;;5.25;85.64
61488;BME280;47351;53.326;-6.298;2022-12-29T12:01:41;99309.08;;;5.58;85.02
61488;BME280;47351;53.326;-6.298;2022-12-29T12:04:33;99300.99;;;7.82;81.10
61488;BME280;47351;53.326;-6.298;2022-12-29T12:07:24;99290.52;;;10.58;74.54
61488;BME280;47351;53.326;-6.298;2022-12-29T12:10:19;99278.77;;;12.65;69.04
61488;BME280;47351;53.326;-6.298;2022-12-29T12:13:14;99284.13;;;14.24;64.97
61488;BME280;47351;53.326;-6.298;2022-12-29T12:16:08;99273.13;;;15.54;60.32
61488;BME280;47351;53.326;-6.298;2022-12-29T12:18:58;99281.02;;;16.45;56.07
61488;BME280;47351;53.326;-6.298;2022-12-29T12:21:51;99280.79;;;17.28;55.85
61488;BME280;47351;53.326;-6.298;2022-12-29T12:24:44;99291.84;;;17.84;53.19
61488;BME280;47351;53.326;-6.298;2022-12-29T12:27:37;99285.69;;;16.94;51.47
61488;BME280;47351;53.326;-6.298;2022-12-29T12:30:28;99304.94;;;15.84;53.45
61488;BME280;47351;53.326;-6.298;2022-12-29T12:33:22;99310.98;;;15.30;53.57
61488;BME280;47351;53.326;-6.298;2022-12-29T12:36:25;99319.84;;;13.62;55.56
61488;BME280;47351;53.326;-6.298;2022-12-29T12:39:19;99325.29;;;12.21;58.22
61488;BME280;47351;53.326;-6.298;2022-12-29T12:42:17;99332.75;;;11.02;60.68
61488;BME280;47351;53.326;-6.298;2022-12-29T12:45:26;99339.52;;;10.15;62.84
61488;BME280;47351;53.326;-6.298;2022-12-29T12:51:20;99355.80;;;9.00;66.36
61488;BME280;47351;53.326;-6.298;2022-12-29T12:54:17;99350.39;;;8.77;67.74
61488;BME280;47351;53.326;-6.298;2022-12-29T12:57:11;99355.34;;;8.59;68.48
61488;BME280;47351;53.326;-6.298;2022-12-29T13:00:04;99365.08;;;8.32;69.71
61488;BME280;47351;53.326;-6.298;2022-12-29T13:03:03;99364.19;;;8.12;70.36
61488;BME280;47351;53.326;-6.298;2022-12-29T13:06:06;99364.00;;;7.93;71.14
61488;BME280;47351;53.326;-6.298;2022-12-29T13:09:11;99377.64;;;7.71;71.98
61488;BME280;47351;53.326;-6.298;2022-12-29T13:12:06;99381.23;;;7.55;72.55
61488;BME280;47351;53.326;-6.298;2022-12-29T13:15:01;99398.27;;;7.41;73.01
61488;BME280;47351;53.326;-6.298;2022-12-29T13:17:54;99404.99;;;7.37;73.34
61488;BME280;47351;53.326;-6.298;2022-12-29T13:20:46;99406.05;;;7.44;73.67
61488;BME280;47351;53.326;-6.298;2022-12-29T13:23:36;99410.68;;;7.48;73.84
61488;BME280;47351;53.326;-6.298;2022-12-29T13:26:28;99420.98;;;7.41;74.05
61488;BME280;47351;53.326;-6.298;2022-12-29T13:29:22;99425.88;;;7.25;74.18
61488;BME280;47351;53.326;-6.298;2022-12-29T13:32:27;99423.23;;;7.08;74.48
61488;BME280;47351;53.326;-6.298;2022-12-29T13:35:25;99430.20;;;6.91;74.62
61488;BME280;47351;53.326;-6.298;2022-12-29T13:38:17;99441.02;;;6.81;74.80
61488;BME280;47351;53.326;-6.298;2022-12-29T13:41:08;99448.08;;;6.83;74.69
61488;BME280;47351;53.326;-6.298;2022-12-29T13:43:57;99459.85;;;6.86;74.30
61488;BME280;47351;53.326;-6.298;2022-12-29T13:46:46;99467.23;;;6.84;73.84
61488;BME280;47351;53.326;-6.298;2022-12-29T13:49:35;99455.52;;;6.73;72.93
61488;BME280;47351;53.326;-6.298;2022-12-29T13:52:27;99462.23;;;6.63;73.11
61488;BME280;47351;53.326;-6.298;2022-12-29T13:55:23;99466.36;;;6.55;72.91
61488;BME280;47351;53.326;-6.298;2022-12-29T13:58:14;99468.76;;;6.43;72.92
61488;BME280;47351;53.326;-6.298;2022-12-29T14:01:08;99469.66;;;6.37;73.09
61488;BME280;47351;53.326;-6.298;2022-12-29T14:03:58;99477.23;;;6.32;73.50
61488;BME280;47351;53.326;-6.298;2022-12-29T14:06:48;99481.92;;;6.28;73.62
61488;BME280;47351;53.326;-6.298;2022-12-29T14:09:49;99477.65;;;6.24;73.80
61488;BME280;47351;53.326;-6.298;2022-12-29T14:12:39;99482.73;;;6.20;73.48
61488;BME280;47351;53.326;-6.298;2022-12-29T14:15:28;99478.77;;;6.17;73.84
61488;BME280;47351;53.326;-6.298;2022-12-29T14:18:17;99479.39;;;6.15;73.88
61488;BME280;47351;53.326;-6.298;2022-12-29T14:21:08;99483.61;;;6.12;73.89
61488;BME280;47351;53.326;-6.298;2022-12-29T14:24:25;99484.96;;;6.07;74.04
61488;BME280;47351;53.326;-6.298;2022-12-29T14:33:19;99486.95;;;6.00;74.78
61488;BME280;47351;53.326;-6.298;2022-12-29T14:36:20;99487.90;;;5.96;74.76
61488;BME280;47351;53.326;-6.298;2022-12-29T14:42:12;99478.54;;;5.90;74.93
61488;BME280;47351;53.326;-6.298;2022-12-29T14:45:02;99480.29;;;5.87;75.18
61488;BME280;47351;53.326;-6.298;2022-12-29T14:47:54;99483.92;;;5.84;75.28
61488;BME280;47351;53.326;-6.298;2022-12-29T14:50:43;99489.80;;;5.84;75.32
61488;BME280;47351;53.326;-6.298;2022-12-29T14:53:42;99497.48;;;5.87;74.82
61488;BME280;47351;53.326;-6.298;2022-12-29T14:56:31;99503.02;;;5.91;74.73
61488;BME280;47351;53.326;-6.298;2022-12-29T14:59:20;99500.27;;;5.94;74.75
61488;BME280;47351;53.326;-6.298;2022-12-29T15:02:16;99502.70;;;5.95;74.74
61488;BME280;47351;53.326;-6.298;2022-12-29T15:05:10;99502.72;;;5.93;74.91
61488;BME280;47351;53.326;-6.298;2022-12-29T15:08:08;99508.79;;;5.91;75.15
61488;BME280;47351;53.326;-6.298;2022-12-29T15:10:58;99503.89;;;5.87;75.37
61488;BME280;47351;53.326;-6.298;2022-12-29T15:13:47;99499.29;;;5.83;75.70
61488;BME280;47351;53.326;-6.298;2022-12-29T15:16:36;99498.57;;;5.80;76.03
61488;BME280;47351;53.326;-6.298;2022-12-29T15:19:26;99495.20;;;5.76;76.32
61488;BME280;47351;53.326;-6.298;2022-12-29T15:22:15;99504.34;;;5.73;76.61
61488;BME280;47351;53.326;-6.298;2022-12-29T15:25:03;99508.96;;;5.70;76.87
61488;BME280;47351;53.326;-6.298;2022-12-29T15:27:54;99509.55;;;5.66;77.07